Gifford, Arkansas
Current Conditions -  °F | °C
As of 6:53 PM on Tuesday 21 Oct 2014 (Local Time) from KHOT Reporting Station
Clear Clear  
Wind Chill: 69°   Ceiling: Unl
Heat Index: 69°   Visibility: 10mi
Dew Point: 58°   Wind: 0mph
Humidity: 68%   Direction: NA
Pressure: 30.05"   Gusts: NA
Location:  34.3189°N, 92.8629°W
Report Text: KHOT 212353Z AUTO 00000KT 10SM CLR 21/14 A3005 RMK AO2 SLP172 T02060144 10261 20206 53000
Loading
Personal Weather Stations






























Interactive Weather Map New forecast layout! Learn more

10-Day Weather Forecast

Advertisements
Track Severe Weather on mobile